createdAt,value
2019-04-21T00:02:24.203Z,44.23
2019-04-21T00:05:10.853Z,43.75
2019-04-21T00:07:38.604Z,43.83
2019-04-21T00:10:12.083Z,43.83
2019-04-21T00:12:34.458Z,44.03
2019-04-21T00:15:02.131Z,43.95
2019-04-21T00:17:23.112Z,44.25
2019-04-21T00:20:09.149Z,44.25
2019-04-21T00:22:41.678Z,44.28
2019-04-21T00:25:13.906Z,44.00
2019-04-21T00:27:48.393Z,44.00
2019-04-21T00:30:21.382Z,44.41
2019-04-21T00:32:41.900Z,44.41
2019-04-21T00:35:07.599Z,44.52
2019-04-21T00:37:50.598Z,45.13
2019-04-21T00:40:22.806Z,44.76
2019-04-21T00:42:48.861Z,44.71
2019-04-21T00:45:16.230Z,44.86
2019-04-21T00:47:53.138Z,45.08
2019-04-21T00:50:25.569Z,45.23
2019-04-21T00:53:00.852Z,45.69
2019-04-21T00:58:10.654Z,45.69
2019-04-21T01:00:43.020Z,45.44
2019-04-21T01:03:11.019Z,45.74
2019-04-21T01:05:46.981Z,45.73
2019-04-21T01:08:11.466Z,45.92
2019-04-21T01:10:33.600Z,46.05
2019-04-21T01:13:20.393Z,46.11
2019-04-21T01:15:46.114Z,45.83
2019-04-21T01:18:09.234Z,46.03
2019-04-21T01:20:20.755Z,45.91
2019-04-21T01:22:49.173Z,46.17
2019-04-21T01:25:27.469Z,46.01
2019-04-21T01:28:03.789Z,46.03
2019-04-21T01:30:41.037Z,46.22
2019-04-21T01:33:20.096Z,46.58
2019-04-21T01:35:39.700Z,47.05
2019-04-21T01:38:16.681Z,47.44
2019-04-21T01:40:41.131Z,47.77
2019-04-21T01:43:08.003Z,47.57
2019-04-21T01:45:37.676Z,47.56
2019-04-21T01:48:05.708Z,47.88
2019-04-21T01:50:41.181Z,47.36
2019-04-21T01:53:24.864Z,47.72
2019-04-21T01:55:54.180Z,47.90
2019-04-21T01:58:19.741Z,48.10
2019-04-21T02:00:53.779Z,48.07
2019-04-21T02:03:46.651Z,48.33
2019-04-21T02:06:04.805Z,48.61
2019-04-21T02:08:27.176Z,48.85
2019-04-21T02:10:59.961Z,49.01
2019-04-21T02:13:23.136Z,49.00
2019-04-21T02:16:02.081Z,49.48
2019-04-21T02:18:27.989Z,49.03
2019-04-21T02:20:47.596Z,49.12
2019-04-21T02:23:34.671Z,49.00
2019-04-21T02:26:00.036Z,49.30
2019-04-21T02:28:36.737Z,49.47
2019-04-21T02:31:18.096Z,49.66
2019-04-21T02:33:50.778Z,50.12
2019-04-21T02:36:23.305Z,50.05
2019-04-21T02:38:48.774Z,50.50
2019-04-21T02:41:06.043Z,50.09
2019-04-21T02:43:50.176Z,49.65
2019-04-21T02:46:12.856Z,50.16
2019-04-21T02:48:51.475Z,49.95
2019-04-21T02:51:17.382Z,50.06
2019-04-21T02:56:18.877Z,50.16
2019-04-21T02:59:02.378Z,50.50
2019-04-21T03:04:04.933Z,51.21
2019-04-21T03:06:59.823Z,51.73
2019-04-21T03:09:24.316Z,51.73
2019-04-21T03:11:57.250Z,51.75
2019-04-21T03:14:33.298Z,52.07
2019-04-21T03:16:42.975Z,51.97
2019-04-21T03:19:28.922Z,52.05
2019-04-21T03:21:57.409Z,52.84
2019-04-21T03:24:18.458Z,52.50
2019-04-21T03:27:01.410Z,52.62
2019-04-21T03:29:34.898Z,52.37
2019-04-21T03:34:51.351Z,52.50
2019-04-21T03:39:29.514Z,52.37
2019-04-21T03:42:01.886Z,52.33
2019-04-21T03:44:22.874Z,52.12
2019-04-21T03:49:28.097Z,52.38
2019-04-21T03:52:00.340Z,52.39
2019-04-21T03:59:19.861Z,53.68
2019-04-21T04:02:23.073Z,54.03
2019-04-21T04:04:44.089Z,53.82
2019-04-21T04:07:44.657Z,53.88
2019-04-21T04:10:08.043Z,53.61
2019-04-21T04:15:20.520Z,53.59
2019-04-21T04:20:26.185Z,54.20
2019-04-21T04:25:04.974Z,53.98
2019-04-21T04:32:34.697Z,53.81
2019-04-21T04:35:21.551Z,53.45
2019-04-21T04:37:40.580Z,53.21
2019-04-21T04:40:13.902Z,52.67
2019-04-21T04:45:24.090Z,52.36
2019-04-21T04:47:49.984Z,52.31
2019-04-21T04:50:27.722Z,51.91
2019-04-21T04:52:49.018Z,51.94
2019-04-21T04:55:20.909Z,51.48
2019-04-21T05:00:25.742Z,51.27
2019-04-21T05:02:48.869Z,50.97
2019-04-21T05:08:07.974Z,51.39
2019-04-21T05:10:29.555Z,51.47
2019-04-21T05:12:51.028Z,51.19
2019-04-21T05:22:44.741Z,50.70
2019-04-21T05:25:10.370Z,50.91
2019-04-21T05:27:44.402Z,50.65
2019-04-21T05:30:30.670Z,51.21
2019-04-21T05:33:12.460Z,50.49
2019-04-21T05:35:42.537Z,49.63
2019-04-21T05:38:10.418Z,50.07
2019-04-21T05:40:37.304Z,49.92
2019-04-21T05:43:17.699Z,50.43
2019-04-21T05:45:47.640Z,49.62
2019-04-21T05:50:46.276Z,48.77
2019-04-21T05:53:26.749Z,48.76
2019-04-21T05:55:51.429Z,49.14
2019-04-21T05:58:14.597Z,49.57
2019-04-21T06:03:32.326Z,48.57
2019-04-21T06:06:10.476Z,48.09
2019-04-21T06:08:31.442Z,47.80
2019-04-21T06:11:04.836Z,48.00
2019-04-21T06:13:34.813Z,47.49
2019-04-21T06:16:05.803Z,46.95
2019-04-21T06:20:59.778Z,46.37
2019-04-21T06:23:32.748Z,48.11
2019-04-21T06:28:38.025Z,48.58
2019-04-21T06:31:18.090Z,48.37
2019-04-21T06:33:36.091Z,48.69
2019-04-21T06:36:31.810Z,48.38
2019-04-21T06:41:23.364Z,47.33
2019-04-21T06:43:58.370Z,47.43
2019-04-21T06:46:26.340Z,47.43
2019-04-21T06:48:49.706Z,47.29
2019-04-21T06:51:22.447Z,46.85
2019-04-21T06:53:52.397Z,47.35
2019-04-21T06:56:25.231Z,46.94
2019-04-21T06:58:50.440Z,46.67
2019-04-21T07:01:26.533Z,46.01
2019-04-21T07:04:03.087Z,46.01
2019-04-21T07:06:23.443Z,45.78
2019-04-21T07:09:06.357Z,45.78
2019-04-21T07:11:18.959Z,46.37
2019-04-21T07:14:01.790Z,46.48
2019-04-21T07:16:25.449Z,45.73
2019-04-21T07:19:04.066Z,45.50
2019-04-21T07:21:21.924Z,45.17
2019-04-21T07:23:53.884Z,44.93
2019-04-21T07:26:25.496Z,44.96
2019-04-21T07:28:56.426Z,44.40
2019-04-21T07:31:25.376Z,44.75
2019-04-21T07:36:36.421Z,43.79
2019-04-21T07:38:50.418Z,43.79
2019-04-21T07:41:16.010Z,43.48
2019-04-21T07:43:57.210Z,43.79
2019-04-21T07:46:25.618Z,43.39
2019-04-21T07:49:12.786Z,44.10
2019-04-21T07:51:50.919Z,43.18
2019-04-21T07:54:25.146Z,42.92
2019-04-21T07:56:33.265Z,42.86
2019-04-21T07:59:23.850Z,42.64
2019-04-21T08:01:50.412Z,41.84
2019-04-21T08:04:37.850Z,42.20
2019-04-21T08:06:46.574Z,41.47
2019-04-21T08:09:19.730Z,41.47
2019-04-21T08:11:44.292Z,41.04
2019-04-21T08:14:17.797Z,40.63
2019-04-21T08:16:55.566Z,40.20
2019-04-21T08:19:18.708Z,40.72
2019-04-21T08:24:24.186Z,40.50
2019-04-21T08:26:51.446Z,39.43
2019-04-21T08:29:25.697Z,39.78
2019-04-21T08:31:56.192Z,39.16
2019-04-21T08:34:21.698Z,39.42
2019-04-21T08:36:55.313Z,39.69
2019-04-21T08:39:19.610Z,39.19
2019-04-21T08:41:51.114Z,39.10
2019-04-21T08:44:26.247Z,38.72
2019-04-21T08:46:52.803Z,38.56
2019-04-21T08:49:23.421Z,38.25
2019-04-21T08:51:57.781Z,38.90
2019-04-21T08:54:22.033Z,38.58
2019-04-21T08:56:59.414Z,38.11
2019-04-21T08:59:31.332Z,38.00
2019-04-21T09:02:02.988Z,37.65
2019-04-21T09:04:36.010Z,36.88
2019-04-21T09:09:38.190Z,36.57
2019-04-21T09:12:04.785Z,36.73
2019-04-21T09:14:36.556Z,37.02
2019-04-21T09:17:00.372Z,37.31
2019-04-21T09:19:44.575Z,36.74
2019-04-21T09:22:05.837Z,36.39
2019-04-21T09:24:33.012Z,36.28
2019-04-21T09:27:06.940Z,35.78
2019-04-21T09:29:26.458Z,36.67
2019-04-21T09:31:49.447Z,35.98
2019-04-21T09:34:27.181Z,36.09
2019-04-21T09:36:51.591Z,36.25
2019-04-21T09:39:20.741Z,36.33
2019-04-21T09:41:51.208Z,36.28
2019-04-21T09:44:25.547Z,35.64
2019-04-21T09:46:54.024Z,35.55
2019-04-21T09:49:23.507Z,34.89
2019-04-21T09:51:48.956Z,35.18
2019-04-21T09:54:23.184Z,34.72
2019-04-21T09:56:55.996Z,34.29
2019-04-21T09:59:26.192Z,34.78
2019-04-21T10:02:00.210Z,34.49
2019-04-21T10:04:18.923Z,34.54
2019-04-21T10:06:47.660Z,33.81
2019-04-21T10:09:19.445Z,33.95
2019-04-21T10:11:46.367Z,33.99
2019-04-21T10:14:14.831Z,34.08
2019-04-21T10:16:47.616Z,33.94
2019-04-21T10:19:17.424Z,33.71
2019-04-21T10:21:46.578Z,33.58
2019-04-21T10:24:16.216Z,33.93
2019-04-21T10:26:45.165Z,34.42
2019-04-21T10:29:21.529Z,33.81
2019-04-21T10:31:44.870Z,33.96
2019-04-21T10:34:13.576Z,33.27
2019-04-21T10:36:42.980Z,32.99
2019-04-21T10:39:11.628Z,32.97
2019-04-21T10:41:41.387Z,32.83
2019-04-21T10:44:11.441Z,32.23
2019-04-21T10:46:40.595Z,32.25
2019-04-21T10:49:10.430Z,31.99
2019-04-21T10:51:39.391Z,32.19
2019-04-21T10:54:08.239Z,32.53
2019-04-21T10:56:41.735Z,31.79
2019-04-21T10:59:08.006Z,32.65
2019-04-21T11:01:36.930Z,31.57
2019-04-21T11:04:17.254Z,31.16
2019-04-21T11:06:40.618Z,31.75
2019-04-21T11:09:10.744Z,31.53
2019-04-21T11:11:39.748Z,30.00
2019-04-21T11:14:08.717Z,30.44
2019-04-21T11:16:37.339Z,30.87
2019-04-21T11:19:06.375Z,29.44
2019-04-21T11:21:34.955Z,30.03
2019-04-21T11:24:03.945Z,30.16
2019-04-21T11:26:33.716Z,29.98
2019-04-21T11:29:03.183Z,30.56
2019-04-21T11:31:31.657Z,30.14
2019-04-21T11:34:00.906Z,30.30
2019-04-21T11:36:29.572Z,29.56
2019-04-21T11:39:16.825Z,29.30
2019-04-21T11:41:33.962Z,29.53
2019-04-21T11:44:03.443Z,29.49
2019-04-21T11:46:34.140Z,29.81
2019-04-21T11:49:04.030Z,29.45
2019-04-21T11:51:33.327Z,29.46
2019-04-21T11:54:01.823Z,29.88
2019-04-21T11:56:30.568Z,29.00
2019-04-21T11:58:59.678Z,29.37
2019-04-21T12:01:29.629Z,28.81
2019-04-21T12:03:58.189Z,29.09
2019-04-21T12:06:33.501Z,28.84
2019-04-21T12:08:59.866Z,28.73
2019-04-21T12:11:27.285Z,28.78
2019-04-21T12:13:56.294Z,28.21
2019-04-21T12:16:25.198Z,28.31
2019-04-21T12:18:54.649Z,28.50
2019-04-21T12:21:23.511Z,28.78
2019-04-21T12:23:52.370Z,28.52
2019-04-21T12:26:22.150Z,28.29
2019-04-21T12:28:51.924Z,28.55
2019-04-21T12:31:23.445Z,28.67
2019-04-21T12:33:54.041Z,28.78
2019-04-21T12:36:24.056Z,28.33
2019-04-21T12:38:59.663Z,28.87
2019-04-21T12:41:26.672Z,28.37
2019-04-21T12:43:55.277Z,27.98
2019-04-21T12:46:23.745Z,28.42
2019-04-21T12:48:52.198Z,28.63
2019-04-21T12:51:21.905Z,28.29
2019-04-21T12:53:51.789Z,28.83
2019-04-21T12:56:20.352Z,28.81
2019-04-21T12:58:49.053Z,29.34
2019-04-21T13:01:18.835Z,29.63
2019-04-21T13:03:47.954Z,29.37
2019-04-21T13:06:16.539Z,29.36
2019-04-21T13:08:53.594Z,29.15
2019-04-21T13:11:15.170Z,29.15
2019-04-21T13:13:43.930Z,29.02
2019-04-21T13:16:13.678Z,28.96
2019-04-21T13:18:42.319Z,29.38
2019-04-21T13:21:11.930Z,30.07
2019-04-21T13:23:41.147Z,29.51
2019-04-21T13:26:11.289Z,29.88
2019-04-21T13:28:40.441Z,29.58
2019-04-21T13:31:09.095Z,29.87
2019-04-21T13:33:37.816Z,29.12
2019-04-21T13:36:07.677Z,28.96
2019-04-21T13:38:43.150Z,29.71
2019-04-21T13:41:27.195Z,30.21
2019-04-21T13:43:43.347Z,30.13
2019-04-21T13:46:12.151Z,30.23
2019-04-21T13:48:42.369Z,30.28
2019-04-21T13:51:11.256Z,29.71
2019-04-21T13:53:40.000Z,30.05
2019-04-21T13:56:08.914Z,29.67
2019-04-21T13:58:38.005Z,29.51
2019-04-21T14:01:07.707Z,28.93
2019-04-21T14:03:37.585Z,28.92
2019-04-21T14:06:06.635Z,29.18
2019-04-21T14:08:36.856Z,29.16
2019-04-21T14:11:05.471Z,29.28
2019-04-21T14:13:34.232Z,29.31
2019-04-21T14:16:04.031Z,28.71
2019-04-21T14:18:32.859Z,28.87
2019-04-21T14:21:03.092Z,28.01
2019-04-21T14:23:38.124Z,28.42
2019-04-21T14:26:01.843Z,28.36
2019-04-21T14:28:30.379Z,28.31
2019-04-21T14:30:58.823Z,28.18
2019-04-21T14:33:27.914Z,27.95
2019-04-21T14:35:56.841Z,27.88
2019-04-21T14:38:26.790Z,27.57
2019-04-21T14:40:56.497Z,27.93
2019-04-21T14:43:25.950Z,27.76
2019-04-21T14:46:02.980Z,28.56
2019-04-21T14:48:50.796Z,27.72
2019-04-21T14:51:38.943Z,28.39
2019-04-21T14:54:11.977Z,27.74
2019-04-21T14:56:43.100Z,28.05
2019-04-21T14:59:12.954Z,28.07
2019-04-21T15:01:41.945Z,27.67
2019-04-21T15:04:10.544Z,27.36
2019-04-21T15:06:39.398Z,27.75
2019-04-21T15:09:11.180Z,27.37
2019-04-21T15:11:40.191Z,27.23
2019-04-21T15:14:11.680Z,27.16
2019-04-21T15:16:40.876Z,27.10
2019-04-21T15:19:10.723Z,27.61
2019-04-21T15:21:40.431Z,26.86
2019-04-21T15:24:08.965Z,27.11
2019-04-21T15:26:38.028Z,27.59
2019-04-21T15:29:06.769Z,27.68
2019-04-21T15:31:38.137Z,28.02
2019-04-21T15:34:08.654Z,28.19
2019-04-21T15:36:37.839Z,28.83
2019-04-21T15:39:09.855Z,28.77
2019-04-21T15:41:38.612Z,28.41
2019-04-21T15:44:08.267Z,28.89
2019-04-21T15:46:37.637Z,28.69
2019-04-21T15:49:06.992Z,28.68
2019-04-21T15:51:35.824Z,28.30
2019-04-21T15:54:04.984Z,28.41
2019-04-21T15:56:38.519Z,28.76
2019-04-21T15:59:08.682Z,28.72
2019-04-21T16:01:39.002Z,29.74
2019-04-21T16:04:08.019Z,28.44
2019-04-21T16:06:37.350Z,28.42
2019-04-21T16:09:08.557Z,28.78
2019-04-21T16:11:37.874Z,28.45
2019-04-21T16:14:08.040Z,28.82
2019-04-21T16:16:36.707Z,28.51
2019-04-21T16:19:06.157Z,28.38
2019-04-21T16:21:37.097Z,28.96
2019-04-21T16:24:04.835Z,29.09
2019-04-21T16:26:34.873Z,29.53
2019-04-21T16:29:04.906Z,28.81
2019-04-21T16:31:34.298Z,29.07
2019-04-21T16:34:03.209Z,29.06
2019-04-21T16:36:31.908Z,28.37
2019-04-21T16:39:01.761Z,27.65
2019-04-21T16:41:30.326Z,27.77
2019-04-21T16:43:58.886Z,27.94
2019-04-21T16:46:27.594Z,28.24
2019-04-21T16:48:56.030Z,28.07
2019-04-21T16:51:24.523Z,27.83
2019-04-21T16:53:55.690Z,27.89
2019-04-21T16:56:29.125Z,28.13
2019-04-21T16:59:06.386Z,27.81
2019-04-21T17:01:36.347Z,27.91
2019-04-21T17:04:06.517Z,27.94
2019-04-21T17:06:35.388Z,28.01
2019-04-21T17:09:05.475Z,28.38
2019-04-21T17:11:37.180Z,27.90
2019-04-21T17:14:05.862Z,28.10
2019-04-21T17:16:55.170Z,28.54
2019-04-21T17:19:14.560Z,29.18
2019-04-21T17:21:37.584Z,28.74
2019-04-21T17:24:08.301Z,28.88
2019-04-21T17:26:39.319Z,29.72
2019-04-21T17:29:07.168Z,29.56
2019-04-21T17:31:37.074Z,29.71
2019-04-21T17:34:11.892Z,29.18
2019-04-21T17:36:37.137Z,30.91
2019-04-21T17:39:06.992Z,29.98
2019-04-21T17:41:43.428Z,30.08
2019-04-21T17:44:06.677Z,29.61
2019-04-21T17:46:44.097Z,29.58
2019-04-21T17:49:05.641Z,30.51
2019-04-21T17:51:40.619Z,30.66
2019-04-21T17:54:17.408Z,29.94
2019-04-21T17:57:07.530Z,30.27
2019-04-21T17:59:47.607Z,30.31
2019-04-21T18:02:02.236Z,31.42
2019-04-21T18:04:30.675Z,31.10
2019-04-21T18:07:26.278Z,30.75
2019-04-21T18:10:00.986Z,32.35
2019-04-21T18:12:25.022Z,31.39
2019-04-21T18:14:55.514Z,31.94
2019-04-21T18:17:11.501Z,31.90
2019-04-21T18:19:43.593Z,31.93
2019-04-21T18:22:12.801Z,32.15
2019-04-21T18:24:55.083Z,32.11
2019-04-21T18:27:17.447Z,31.94
2019-04-21T18:29:46.516Z,32.25
2019-04-21T18:32:17.555Z,32.18
2019-04-21T18:35:07.032Z,32.50
2019-04-21T18:37:41.766Z,32.64
2019-04-21T18:40:12.341Z,32.96
2019-04-21T18:43:04.434Z,33.47
2019-04-21T18:48:06.694Z,33.94
2019-04-21T18:50:48.912Z,33.71
2019-04-21T18:53:44.773Z,34.05
2019-04-21T18:56:05.691Z,34.08
2019-04-21T18:58:32.554Z,33.97
2019-04-21T19:01:07.326Z,34.06
2019-04-21T19:03:38.875Z,34.36
2019-04-21T19:06:08.991Z,34.57
2019-04-21T19:08:56.141Z,34.64
2019-04-21T19:14:32.966Z,34.88
2019-04-21T19:19:36.544Z,35.17
2019-04-21T19:21:32.896Z,35.37
2019-04-21T19:24:18.189Z,35.71
2019-04-21T19:26:46.786Z,35.82
2019-04-21T19:29:22.808Z,35.85
2019-04-21T19:31:44.364Z,36.24
2019-04-21T19:34:03.542Z,36.08
2019-04-21T19:36:23.766Z,36.27
2019-04-21T19:39:03.692Z,36.62
2019-04-21T19:41:35.632Z,36.82
2019-04-21T19:44:14.197Z,36.75
2019-04-21T19:46:38.047Z,37.05
2019-04-21T19:49:17.234Z,37.51
2019-04-21T19:51:36.284Z,37.43
2019-04-21T19:54:01.468Z,37.22
2019-04-21T19:56:24.120Z,37.52
2019-04-21T19:58:52.974Z,38.13
2019-04-21T20:01:21.527Z,38.36
2019-04-21T20:03:55.367Z,38.22
2019-04-21T20:06:36.141Z,38.56
2019-04-21T20:09:12.198Z,38.98
2019-04-21T20:11:38.717Z,39.20
2019-04-21T20:14:41.811Z,39.35
2019-04-21T20:16:41.733Z,39.64
2019-04-21T20:18:58.567Z,39.82
2019-04-21T20:21:22.814Z,40.06
2019-04-21T20:23:51.723Z,39.98
2019-04-21T20:26:23.123Z,40.14
2019-04-21T20:29:01.070Z,40.38
2019-04-21T20:31:37.369Z,40.52
2019-04-21T20:34:11.320Z,40.47
2019-04-21T20:36:41.898Z,40.73
2019-04-21T20:38:58.029Z,41.21
2019-04-21T20:41:38.234Z,40.76
2019-04-21T20:44:11.977Z,40.84
2019-04-21T20:46:39.869Z,40.60
2019-04-21T20:49:04.576Z,40.45
2019-04-21T20:51:37.965Z,39.77
2019-04-21T20:54:07.373Z,39.42
2019-04-21T20:56:42.028Z,39.02
2019-04-21T20:59:08.063Z,39.05
2019-04-21T21:01:39.319Z,38.92
2019-04-21T21:04:06.359Z,38.67
2019-04-21T21:06:38.525Z,38.80
2019-04-21T21:09:12.174Z,38.27
2019-04-21T21:11:46.161Z,38.50
2019-04-21T21:14:11.827Z,38.41
2019-04-21T21:16:46.199Z,38.60
2019-04-21T21:19:25.907Z,38.42
2019-04-21T21:21:40.003Z,38.29
2019-04-21T21:24:10.213Z,38.66
2019-04-21T21:26:43.984Z,38.72
2019-04-21T21:29:06.842Z,38.79
2019-04-21T21:31:41.489Z,38.79
2019-04-21T21:34:19.205Z,39.15
2019-04-21T21:36:43.155Z,39.57
2019-04-21T21:39:15.481Z,39.23
2019-04-21T21:41:33.678Z,39.39
2019-04-21T21:44:05.332Z,39.50
2019-04-21T21:46:41.046Z,39.77
2019-04-21T21:49:07.614Z,39.90
2019-04-21T21:51:39.795Z,40.08
2019-04-21T21:53:58.891Z,40.21
2019-04-21T21:56:28.772Z,39.91
2019-04-21T21:59:01.162Z,39.93
2019-04-21T22:01:32.007Z,39.80
2019-04-21T22:04:04.881Z,40.10
2019-04-21T22:06:39.962Z,40.34
2019-04-21T22:08:58.597Z,40.37
2019-04-21T22:11:27.164Z,40.73
2019-04-21T22:14:02.782Z,40.55
2019-04-21T22:16:46.637Z,40.78
2019-04-21T22:19:16.848Z,41.07
2019-04-21T22:21:51.953Z,41.13
2019-04-21T22:24:08.495Z,41.24
2019-04-21T22:26:29.651Z,41.26
2019-04-21T22:28:58.229Z,41.52
2019-04-21T22:31:31.871Z,41.54
2019-04-21T22:34:02.236Z,41.87
2019-04-21T22:36:42.674Z,41.69
2019-04-21T22:39:13.341Z,41.91
2019-04-21T22:41:35.558Z,42.05
2019-04-21T22:43:59.379Z,42.08
2019-04-21T22:46:28.562Z,42.11
2019-04-21T22:49:03.712Z,42.38
2019-04-21T22:51:37.082Z,42.21
2019-04-21T22:54:01.039Z,42.37
2019-04-21T22:56:32.032Z,42.32
2019-04-21T22:59:04.232Z,42.24
2019-04-21T23:01:35.370Z,42.13
2019-04-21T23:04:02.799Z,42.17
2019-04-21T23:06:33.735Z,42.75
2019-04-21T23:09:01.171Z,42.88
2019-04-21T23:11:35.868Z,43.27
2019-04-21T23:14:04.374Z,43.55
2019-04-21T23:16:35.600Z,43.55
2019-04-21T23:19:21.125Z,43.73
2019-04-21T23:21:55.475Z,43.54
2019-04-21T23:24:26.517Z,43.45
2019-04-21T23:26:44.882Z,43.36
2019-04-21T23:29:20.962Z,43.21
2019-04-21T23:31:51.736Z,43.21
2019-04-21T23:34:02.353Z,42.90
2019-04-21T23:36:33.400Z,42.90
2019-04-21T23:39:01.396Z,43.48
2019-04-21T23:41:39.034Z,44.08
2019-04-21T23:44:05.878Z,44.08
2019-04-21T23:46:35.012Z,43.71
2019-04-21T23:49:16.320Z,43.71
2019-04-21T23:51:42.053Z,43.42
2019-04-21T23:54:01.770Z,43.81
2019-04-21T23:56:35.827Z,43.78
2019-04-21T23:59:05.088Z,43.74
